Time;durP1;ratioP1;P1;durP2;ratioP2;P2;SDS_P1;SDS_P2;PMS_P1;PMS_P2;Temp;Humidity;BMP_temperature;BMP_pressure;BME280_temperature;BME280_humidity;BME280_pressure;Samples;Min_cycle;Max_cycle;Signal;HPM_P1;HPM_P2
2021/09/28 00:02:00;;;;;;;1.17;1.00;;;20.00;77.30;;;;;;5093522;28;20047;-53
2021/09/28 00:04:26;;;;;;;1.13;1.02;;;20.00;77.40;;;;;;5092963;28;20044;-55
2021/09/28 00:06:51;;;;;;;1.20;1.10;;;20.00;77.30;;;;;;5093477;28;20480;-52
2021/09/28 00:09:17;;;;;;;1.23;1.13;;;20.00;77.30;;;;;;5093271;28;20043;-54
2021/09/28 00:11:43;;;;;;;1.10;0.98;;;20.00;77.30;;;;;;5093219;28;20044;-52
2021/09/28 00:14:09;;;;;;;1.40;1.20;;;20.00;77.30;;;;;;5091967;28;20043;-52
2021/09/28 00:16:34;;;;;;;2.00;1.00;;;20.00;77.30;;;;;;5093257;28;20065;-52
2021/09/28 00:19:00;;;;;;;1.38;1.10;;;20.00;77.30;;;;;;5092739;28;20473;-51
2021/09/28 00:21:27;;;;;;;1.23;1.10;;;20.00;77.30;;;;;;5092529;28;20060;-49
2021/09/28 00:23:52;;;;;;;1.30;1.20;;;20.00;77.30;;;;;;5093397;28;20381;-51
2021/09/28 00:26:18;;;;;;;0.90;0.90;;;20.00;77.30;;;;;;5093450;28;20093;-50
2021/09/28 00:28:44;;;;;;;1.40;1.05;;;20.00;77.30;;;;;;5092768;28;20093;-49
2021/09/28 00:31:09;;;;;;;1.20;1.05;;;19.90;77.30;;;;;;5092760;28;20044;-48
2021/09/28 00:33:35;;;;;;;1.15;1.00;;;20.00;77.30;;;;;;5092922;28;20049;-49
2021/09/28 00:36:01;;;;;;;1.10;1.00;;;19.90;77.20;;;;;;5092217;28;20384;-52
2021/09/28 00:38:27;;;;;;;1.13;1.02;;;19.90;77.30;;;;;;5093284;28;20039;-53
2021/09/28 00:40:52;;;;;;;0.98;0.90;;;19.90;77.30;;;;;;5092749;28;20445;-51
2021/09/28 00:43:18;;;;;;;1.17;1.05;;;19.90;77.30;;;;;;5093095;28;20044;-56
2021/09/28 00:45:44;;;;;;;0.85;0.85;;;19.90;77.20;;;;;;5092733;28;20036;-56
2021/09/28 00:48:10;;;;;;;1.20;1.10;;;20.00;77.30;;;;;;5093109;28;20043;-56
2021/09/28 00:50:36;;;;;;;1.73;0.90;;;20.00;77.30;;;;;;5092812;28;20032;-56
2021/09/28 00:53:04;;;;;;;1.08;0.98;;;19.90;77.30;;;;;;5092103;28;20039;-56
2021/09/28 00:55:30;;;;;;;1.10;1.00;;;19.90;77.50;;;;;;5092777;28;20049;-56
2021/09/28 00:57:57;;;;;;;1.15;1.00;;;19.90;77.30;;;;;;5092684;28;20447;-55
2021/09/28 01:00:23;;;;;;;1.20;0.82;;;19.90;77.30;;;;;;5092517;28;20085;-56
2021/09/28 01:02:51;;;;;;;1.08;0.98;;;19.90;77.30;;;;;;5091886;28;20040;-56
2021/09/28 01:05:16;;;;;;;0.93;0.93;;;19.90;77.30;;;;;;5092191;28;20066;-55
2021/09/28 01:07:42;;;;;;;0.80;0.80;;;19.90;77.20;;;;;;5092220;28;20551;-56
2021/09/28 01:10:08;;;;;;;1.00;0.95;;;19.90;77.20;;;;;;5092345;28;20504;-58
2021/09/28 01:12:34;;;;;;;0.75;0.70;;;19.90;77.20;;;;;;5092083;28;20178;-58
2021/09/28 01:15:00;;;;;;;1.13;1.02;;;19.90;77.20;;;;;;5092631;28;20083;-58
2021/09/28 01:17:26;;;;;;;1.30;0.90;;;19.90;77.20;;;;;;5092905;28;20043;-59
2021/09/28 01:19:51;;;;;;;1.52;1.10;;;19.90;77.20;;;;;;5092793;28;20519;-57
2021/09/28 01:22:18;;;;;;;1.20;1.08;;;19.90;77.20;;;;;;5091906;28;20159;-58
2021/09/28 01:24:45;;;;;;;1.00;0.93;;;19.90;77.20;;;;;;5092001;28;20044;-59
2021/09/28 01:27:11;;;;;;;1.27;1.17;;;19.90;77.20;;;;;;5090848;28;20421;-58
2021/09/28 01:29:38;;;;;;;1.35;1.02;;;19.90;77.20;;;;;;5092043;28;20092;-56
2021/09/28 01:32:04;;;;;;;0.82;0.80;;;19.90;77.20;;;;;;5092550;28;20036;-56
2021/09/28 01:34:30;;;;;;;1.50;0.80;;;19.90;77.20;;;;;;5089964;28;20059;-54
2021/09/28 01:36:56;;;;;;;1.30;0.95;;;19.90;77.20;;;;;;5092037;28;20043;-55
2021/09/28 01:39:22;;;;;;;1.00;0.90;;;19.90;77.20;;;;;;5091878;28;20047;-56
2021/09/28 01:41:48;;;;;;;1.42;1.23;;;19.90;77.20;;;;;;5092043;28;20119;-56
2021/09/28 01:44:17;;;;;;;1.13;1.10;;;19.90;77.20;;;;;;5073445;28;20048;-55
2021/09/28 01:46:45;;;;;;;1.45;1.35;;;19.90;77.20;;;;;;5094858;28;20047;-55
2021/09/28 01:49:13;;;;;;;0.98;0.88;;;19.90;77.20;;;;;;5096672;28;20040;-56
2021/09/28 01:51:40;;;;;;;0.90;0.90;;;19.90;77.20;;;;;;5096581;28;20097;-53
2021/09/28 01:54:07;;;;;;;1.08;0.85;;;19.90;77.10;;;;;;5096128;28;20394;-48
2021/09/28 01:56:33;;;;;;;1.10;1.00;;;19.90;77.10;;;;;;5095552;28;20052;-50
2021/09/28 01:59:01;;;;;;;1.35;1.20;;;19.90;77.10;;;;;;5094471;28;20082;-50
2021/09/28 02:01:27;;;;;;;0.95;0.90;;;19.90;77.20;;;;;;5096164;28;20040;-50
2021/09/28 02:03:53;;;;;;;1.33;1.08;;;19.90;77.20;;;;;;5096251;28;20450;-48
2021/09/28 02:06:21;;;;;;;1.00;0.90;;;19.80;77.10;;;;;;5095470;28;20040;-55
2021/09/28 02:08:48;;;;;;;1.20;1.10;;;19.90;77.20;;;;;;5095600;28;20083;-49
2021/09/28 02:11:14;;;;;;;1.42;1.13;;;19.90;77.20;;;;;;5095576;28;20059;-51
2021/09/28 02:13:39;;;;;;;0.80;0.80;;;19.90;77.20;;;;;;5095648;28;20365;-55
2021/09/28 02:16:06;;;;;;;1.58;1.20;;;19.80;77.10;;;;;;5095604;28;20050;-51
2021/09/28 02:18:33;;;;;;;0.90;0.90;;;19.80;77.10;;;;;;5095993;28;20432;-55
2021/09/28 02:20:58;;;;;;;0.80;0.80;;;19.80;77.10;;;;;;5095651;28;20040;-57
2021/09/28 02:23:24;;;;;;;1.33;0.90;;;19.80;77.10;;;;;;5095685;28;20404;-56
2021/09/28 02:25:50;;;;;;;0.82;0.82;;;19.90;77.10;;;;;;5095468;28;20051;-53
2021/09/28 02:28:16;;;;;;;1.00;0.93;;;19.90;77.10;;;;;;5094129;28;20054;-54
2021/09/28 02:30:42;;;;;;;0.85;0.85;;;19.80;77.00;;;;;;5095342;28;20040;-55
2021/09/28 02:33:07;;;;;;;1.27;0.90;;;19.80;77.00;;;;;;5095989;28;20044;-56
2021/09/28 02:35:33;;;;;;;0.80;0.80;;;19.80;77.00;;;;;;5096178;28;20051;-53
2021/09/28 02:37:59;;;;;;;1.08;0.85;;;19.80;77.00;;;;;;5095071;28;20040;-56
2021/09/28 02:40:26;;;;;;;0.90;0.90;;;19.80;77.00;;;;;;5095515;28;20052;-53
2021/09/28 02:42:52;;;;;;;0.90;0.90;;;19.80;77.00;;;;;;5094648;28;20481;-54
2021/09/28 02:45:18;;;;;;;1.20;1.10;;;19.80;77.10;;;;;;5095027;28;20495;-56
2021/09/28 02:47:44;;;;;;;0.85;0.70;;;19.80;77.00;;;;;;5095122;28;20036;-56
2021/09/28 02:50:10;;;;;;;1.25;0.90;;;19.90;77.10;;;;;;5095144;28;20080;-56
2021/09/28 02:52:36;;;;;;;1.10;1.00;;;19.80;77.00;;;;;;5095290;28;20054;-57
2021/09/28 02:55:03;;;;;;;1.10;1.00;;;19.80;77.00;;;;;;5094938;28;20127;-57
2021/09/28 02:57:28;;;;;;;1.05;0.90;;;19.80;77.00;;;;;;5092933;28;20040;-56
2021/09/28 02:59:54;;;;;;;1.02;0.93;;;19.80;77.00;;;;;;5094036;28;20043;-55
2021/09/28 03:02:20;;;;;;;1.17;0.73;;;19.80;77.10;;;;;;5094696;28;20407;-57
2021/09/28 03:04:45;;;;;;;0.80;0.80;;;19.70;77.00;;;;;;5095069;28;20047;-56
2021/09/28 03:07:11;;;;;;;1.25;1.15;;;19.80;77.00;;;;;;5095007;28;20044;-56
2021/09/28 03:09:36;;;;;;;1.13;1.02;;;19.80;77.00;;;;;;5093086;28;20471;-57
2021/09/28 03:12:03;;;;;;;0.90;0.90;;;19.80;77.00;;;;;;5094694;28;20407;-56
2021/09/28 03:14:29;;;;;;;0.90;0.60;;;19.80;77.00;;;;;;5094190;28;20455;-56
2021/09/28 03:16:54;;;;;;;1.10;1.00;;;19.80;77.00;;;;;;5094351;28;20105;-53
2021/09/28 03:19:21;;;;;;;1.13;1.00;;;19.80;77.00;;;;;;5094459;28;20388;-56
2021/09/28 03:21:47;;;;;;;0.90;0.90;;;19.80;77.00;;;;;;5094481;28;20143;-57
2021/09/28 03:24:13;;;;;;;0.80;0.80;;;19.80;77.00;;;;;;5094774;28;20048;-56
2021/09/28 03:26:39;;;;;;;1.10;1.00;;;19.80;77.00;;;;;;5094399;28;20044;-56
2021/09/28 03:29:05;;;;;;;1.02;0.93;;;19.80;77.00;;;;;;5094319;28;20044;-56
2021/09/28 03:31:31;;;;;;;1.30;1.20;;;19.80;77.00;;;;;;5093314;28;20040;-57
2021/09/28 03:33:56;;;;;;;1.05;0.93;;;19.80;77.00;;;;;;5094190;28;20043;-56
2021/09/28 03:36:22;;;;;;;0.93;0.73;;;19.80;77.00;;;;;;5094364;28;20040;-56
2021/09/28 03:38:48;;;;;;;1.42;1.17;;;19.80;77.00;;;;;;5094054;28;20040;-57
2021/09/28 03:41:13;;;;;;;1.10;1.00;;;19.80;77.00;;;;;;5093916;28;20125;-55
2021/09/28 03:43:39;;;;;;;1.15;0.90;;;19.70;76.90;;;;;;5094396;28;20495;-56
2021/09/28 03:46:05;;;;;;;1.00;0.90;;;19.80;77.00;;;;;;5093728;28;20048;-53
2021/09/28 03:48:31;;;;;;;1.02;0.95;;;19.80;77.00;;;;;;5093557;28;20040;-57
2021/09/28 03:50:57;;;;;;;0.70;0.68;;;19.80;77.00;;;;;;5093984;28;20040;-55
2021/09/28 03:53:22;;;;;;;1.08;0.98;;;19.80;77.00;;;;;;5093775;28;20087;-55
2021/09/28 03:55:49;;;;;;;1.42;1.15;;;19.80;77.00;;;;;;5093843;28;20411;-56
2021/09/28 03:58:15;;;;;;;0.90;0.90;;;19.80;77.00;;;;;;5093655;28;20054;-56
2021/09/28 04:00:42;;;;;;;1.02;0.93;;;19.80;77.00;;;;;;5092209;28;20047;-57
2021/09/28 04:03:09;;;;;;;0.85;0.85;;;19.80;77.00;;;;;;5092574;28;20173;-57
2021/09/28 04:05:35;;;;;;;1.20;1.08;;;19.70;77.00;;;;;;5093580;28;20480;-55
2021/09/28 04:08:02;;;;;;;1.23;1.00;;;19.70;77.70;;;;;;5093645;28;20044;-56
2021/09/28 04:10:27;;;;;;;1.10;1.00;;;19.80;77.00;;;;;;5093599;28;20051;-57
2021/09/28 04:12:54;;;;;;;1.10;0.90;;;19.70;77.00;;;;;;5092835;28;20032;-55
2021/09/28 04:15:23;;;;;;;0.77;0.77;;;19.70;76.90;;;;;;5092955;28;20032;-56
2021/09/28 04:17:49;;;;;;;0.90;0.90;;;19.70;76.90;;;;;;5091290;28;20106;-54
2021/09/28 04:20:15;;;;;;;0.90;0.90;;;19.80;77.00;;;;;;5093469;28;20086;-55
2021/09/28 04:22:42;;;;;;;1.23;1.13;;;19.80;77.00;;;;;;5093119;28;20052;-52
2021/09/28 04:25:09;;;;;;;1.02;0.80;;;19.70;76.90;;;;;;5093017;28;20480;-52
2021/09/28 04:27:36;;;;;;;0.82;0.82;;;19.70;76.90;;;;;;5093208;28;20051;-50
2021/09/28 04:30:02;;;;;;;1.13;0.90;;;19.70;77.00;;;;;;5093453;28;20047;-51
2021/09/28 04:32:28;;;;;;;1.00;1.00;;;19.70;77.00;;;;;;5093005;28;20083;-50
2021/09/28 04:34:54;;;;;;;0.93;0.93;;;19.70;76.90;;;;;;5092573;28;20136;-51
2021/09/28 04:37:20;;;;;;;1.20;0.90;;;19.80;77.00;;;;;;5093378;28;20128;-56
2021/09/28 04:39:46;;;;;;;1.02;0.93;;;19.70;77.00;;;;;;5093316;28;20035;-51
2021/09/28 04:42:14;;;;;;;0.93;0.88;;;19.70;76.90;;;;;;5091854;28;20059;-52
2021/09/28 04:44:40;;;;;;;0.90;0.90;;;19.70;76.90;;;;;;5093060;28;20067;-51
2021/09/28 04:47:06;;;;;;;1.08;1.00;;;19.70;76.90;;;;;;5093233;28;20036;-50
2021/09/28 04:49:31;;;;;;;0.80;0.80;;;19.70;76.90;;;;;;5092496;28;20525;-51
2021/09/28 04:51:57;;;;;;;0.80;0.77;;;19.70;76.90;;;;;;5093073;28;20078;-51
2021/09/28 04:54:22;;;;;;;1.00;0.95;;;19.70;76.90;;;;;;5092959;28;20051;-49
2021/09/28 04:56:48;;;;;;;0.82;0.75;;;19.70;76.90;;;;;;5092614;28;20036;-51
2021/09/28 04:59:14;;;;;;;1.10;1.00;;;19.70;76.90;;;;;;5092611;28;20403;-56
2021/09/28 05:01:39;;;;;;;1.20;1.10;;;19.70;76.90;;;;;;5092671;28;20083;-50
2021/09/28 05:04:06;;;;;;;1.40;1.00;;;19.70;76.90;;;;;;5091477;28;20086;-50
2021/09/28 05:06:35;;;;;;;0.98;0.98;;;19.70;76.90;;;;;;5092062;28;20055;-51
2021/09/28 05:09:01;;;;;;;1.40;1.00;;;19.70;76.90;;;;;;5093031;28;20047;-51
2021/09/28 05:11:26;;;;;;;1.15;0.90;;;19.70;76.90;;;;;;5090588;28;20060;-55
2021/09/28 05:13:52;;;;;;;1.08;1.00;;;19.70;76.90;;;;;;5092349;28;20115;-52
2021/09/28 05:16:20;;;;;;;1.30;1.10;;;19.70;76.90;;;;;;5091877;28;20047;-50
2021/09/28 05:18:46;;;;;;;0.80;0.80;;;19.70;76.90;;;;;;5090685;28;20051;-53
2021/09/28 05:21:12;;;;;;;0.98;0.90;;;19.70;76.90;;;;;;5090395;28;20112;-54
2021/09/28 05:23:37;;;;;;;1.08;1.00;;;19.70;76.90;;;;;;5090370;28;20055;-56
2021/09/28 05:26:03;;;;;;;0.90;0.90;;;19.70;76.90;;;;;;5091382;28;20083;-54
2021/09/28 05:28:29;;;;;;;0.90;0.90;;;19.70;76.90;;;;;;5091168;28;20043;-52
2021/09/28 05:30:54;;;;;;;1.02;0.90;;;19.70;76.90;;;;;;5092398;28;20044;-58
2021/09/28 05:33:21;;;;;;;1.20;1.10;;;19.70;76.90;;;;;;5092193;28;20051;-57
2021/09/28 05:35:47;;;;;;;1.17;0.82;;;19.70;76.90;;;;;;5092243;28;20052;-57
2021/09/28 05:38:13;;;;;;;0.90;0.90;;;19.60;76.80;;;;;;5091431;28;20366;-57
2021/09/28 05:40:39;;;;;;;1.13;0.90;;;19.70;76.90;;;;;;5092389;28;20575;-55
2021/09/28 05:43:05;;;;;;;1.20;0.98;;;19.60;76.90;;;;;;5092091;28;20135;-58
2021/09/28 05:45:31;;;;;;;0.80;0.80;;;19.70;76.90;;;;;;5091074;28;20095;-54
2021/09/28 05:47:57;;;;;;;1.27;0.93;;;19.70;76.90;;;;;;5090565;28;20048;-57
2021/09/28 05:50:22;;;;;;;2.20;1.20;;;19.60;76.80;;;;;;5091775;28;20450;-58
2021/09/28 05:52:48;;;;;;;1.13;1.00;;;19.60;76.80;;;;;;5092132;28;20044;-57
2021/09/28 05:55:15;;;;;;;1.02;0.90;;;19.60;76.80;;;;;;5091903;28;20036;-58
2021/09/28 05:57:41;;;;;;;1.20;0.90;;;19.70;76.90;;;;;;5092509;28;20162;-57
2021/09/28 06:00:09;;;;;;;0.82;0.70;;;19.60;76.80;;;;;;5091831;28;20044;-57
2021/09/28 06:02:35;;;;;;;0.95;0.88;;;19.60;77.50;;;;;;5092267;28;20137;-55
2021/09/28 06:05:01;;;;;;;1.02;0.93;;;19.60;76.80;;;;;;5092073;28;20071;-57
2021/09/28 06:07:27;;;;;;;1.40;1.10;;;19.70;76.90;;;;;;5092012;28;20056;-57
2021/09/28 06:09:52;;;;;;;2.25;1.20;;;19.60;76.80;;;;;;5091281;28;20060;-57
2021/09/28 06:12:18;;;;;;;1.10;0.85;;;19.60;77.50;;;;;;5092175;28;20094;-58
2021/09/28 06:14:44;;;;;;;1.20;1.10;;;19.60;76.80;;;;;;5091713;28;20044;-57
2021/09/28 06:17:10;;;;;;;1.10;1.02;;;19.60;76.70;;;;;;5091950;28;20514;-57
2021/09/28 06:19:36;;;;;;;1.30;0.95;;;19.60;76.80;;;;;;5092029;28;20032;-55
2021/09/28 06:22:03;;;;;;;1.27;1.02;;;19.60;76.80;;;;;;5091225;28;20066;-58
2021/09/28 06:24:32;;;;;;;1.17;0.90;;;19.60;76.80;;;;;;5091218;28;20573;-57
2021/09/28 06:27:03;;;;;;;0.95;0.85;;;19.60;76.80;;;;;;5073685;28;20127;-57
2021/09/28 06:29:29;;;;;;;1.17;0.85;;;19.60;76.80;;;;;;5090937;28;20481;-56
2021/09/28 06:31:54;;;;;;;1.10;1.00;;;19.60;76.80;;;;;;5091720;28;20044;-57
2021/09/28 06:34:20;;;;;;;0.90;0.90;;;19.60;77.40;;;;;;5094827;28;20400;-57
2021/09/28 06:36:46;;;;;;;0.80;0.75;;;19.60;76.80;;;;;;5095272;28;20130;-53
2021/09/28 06:39:12;;;;;;;0.80;0.77;;;19.60;76.80;;;;;;5095900;28;20039;-57
2021/09/28 06:41:37;;;;;;;0.80;0.80;;;19.60;76.80;;;;;;5094686;28;20036;-55
2021/09/28 06:44:05;;;;;;;0.85;0.85;;;19.60;76.80;;;;;;5095237;28;20036;-57
2021/09/28 06:46:31;;;;;;;1.02;0.90;;;19.60;76.80;;;;;;5095326;28;20457;-56
2021/09/28 06:48:57;;;;;;;1.33;0.90;;;19.60;76.80;;;;;;5095642;28;20048;-57
2021/09/28 06:51:23;;;;;;;0.70;0.70;;;19.60;76.80;;;;;;5095304;28;20412;-52
2021/09/28 06:53:49;;;;;;;1.38;1.00;;;19.60;76.70;;;;;;5095061;28;20048;-53
2021/09/28 06:56:16;;;;;;;0.73;0.73;;;19.60;76.70;;;;;;5095401;28;20093;-57
2021/09/28 06:58:42;;;;;;;0.70;0.70;;;19.60;76.80;;;;;;5095550;28;20407;-55
2021/09/28 07:01:08;;;;;;;1.30;0.65;;;19.60;76.80;;;;;;5095107;28;20036;-57
2021/09/28 07:03:34;;;;;;;0.90;0.90;;;19.60;76.80;;;;;;5094684;28;20039;-57
2021/09/28 07:06:01;;;;;;;6.88;4.00;;;19.60;76.80;;;;;;5094601;28;20047;-57
2021/09/28 07:08:27;;;;;;;9.60;4.55;;;19.50;74.30;;;;;;5093574;28;20476;-58
2021/09/28 07:10:53;;;;;;;8.00;4.32;;;19.30;71.80;;;;;;5094552;28;20123;-55
2021/09/28 07:13:18;;;;;;;8.45;4.68;;;19.00;71.00;;;;;;5094245;28;20044;-48
2021/09/28 07:15:44;;;;;;;8.90;4.80;;;18.70;70.70;;;;;;5074939;28;20043;-57
2021/09/28 07:18:11;;;;;;;9.15;4.70;;;18.50;71.00;;;;;;5074300;28;20041;-56
2021/09/28 07:20:37;;;;;;;9.02;4.50;;;18.30;72.10;;;;;;5086085;28;20411;-51
2021/09/28 07:23:03;;;;;;;9.73;5.45;;;18.30;73.20;;;;;;5094473;28;20056;-57
2021/09/28 07:25:29;;;;;;;8.57;4.72;;;18.30;74.20;;;;;;5095006;28;20040;-54
2021/09/28 07:27:58;;;;;;;12.25;4.50;;;18.40;74.80;;;;;;5094472;28;20459;-49
2021/09/28 07:30:25;;;;;;;8.73;4.55;;;18.40;75.40;;;;;;5094587;28;20040;-50
2021/09/28 07:32:51;;;;;;;9.23;4.63;;;18.40;75.70;;;;;;5085054;28;20085;-55
2021/09/28 07:35:17;;;;;;;6.65;3.85;;;18.40;76.00;;;;;;5074443;28;20157;-51
2021/09/28 07:37:43;;;;;;;8.25;4.32;;;18.50;76.30;;;;;;5084367;28;20140;-57
2021/09/28 07:40:09;;;;;;;5.88;3.78;;;18.50;76.50;;;;;;5093979;28;20044;-57
2021/09/28 07:42:35;;;;;;;5.90;3.60;;;18.60;76.70;;;;;;5094289;28;20492;-57
2021/09/28 07:45:03;;;;;;;6.35;3.72;;;18.60;76.70;;;;;;5092998;28;20046;-56
2021/09/28 07:47:30;;;;;;;5.10;3.50;;;18.60;76.80;;;;;;5093409;28;20066;-57
2021/09/28 07:49:56;;;;;;;4.95;3.85;;;18.70;77.00;;;;;;5094280;28;20044;-56
2021/09/28 07:52:22;;;;;;;5.78;3.53;;;18.70;77.00;;;;;;5091967;28;20044;-57
2021/09/28 07:54:48;;;;;;;6.10;3.75;;;18.70;77.00;;;;;;5093194;28;20551;-50
2021/09/28 07:57:14;;;;;;;4.82;3.22;;;18.70;77.00;;;;;;5093660;28;20123;-57
2021/09/28 07:59:39;;;;;;;3.83;2.97;;;18.70;77.00;;;;;;5093577;28;20039;-55
2021/09/28 08:02:08;;;;;;;5.53;3.03;;;18.70;77.00;;;;;;5093181;28;20476;-56
2021/09/28 08:04:35;;;;;;;5.60;3.15;;;18.80;77.10;;;;;;5094162;28;20105;-57
2021/09/28 08:07:01;;;;;;;3.30;2.60;;;18.80;77.10;;;;;;5092480;28;20048;-57
2021/09/28 08:09:28;;;;;;;4.85;2.78;;;18.90;77.10;;;;;;5092794;28;20036;-53
2021/09/28 08:11:55;;;;;;;5.15;3.10;;;18.90;77.00;;;;;;5093829;28;20083;-56
2021/09/28 08:14:21;;;;;;;4.45;2.85;;;18.90;77.00;;;;;;5084110;28;20051;-56
2021/09/28 08:16:46;;;;;;;4.15;2.65;;;18.90;77.00;;;;;;5081657;28;20404;-56
2021/09/28 08:19:12;;;;;;;4.13;2.50;;;18.90;77.00;;;;;;5090971;28;20373;-51
2021/09/28 08:21:38;;;;;;;5.63;2.90;;;18.90;77.00;;;;;;5091097;28;20496;-47
2021/09/28 08:24:04;;;;;;;4.10;2.38;;;18.90;77.00;;;;;;5092488;28;20046;-44
2021/09/28 08:29:09;;;;;;;3.72;2.30;;;18.90;77.10;;;;;;5090398;28;20102;-50
2021/09/28 08:31:37;;;;;;;5.25;2.17;;;18.90;77.10;;;;;;5088592;28;20456;-48
2021/09/28 08:34:03;;;;;;;2.75;2.20;;;19.00;77.20;;;;;;5089196;28;20093;-55
2021/09/28 08:36:30;;;;;;;2.95;2.15;;;19.00;77.30;;;;;;5088566;28;20040;-53
2021/09/28 08:38:56;;;;;;;3.83;1.90;;;19.00;77.30;;;;;;5089605;28;20055;-51
2021/09/28 08:41:22;;;;;;;2.90;1.88;;;19.00;77.30;;;;;;5088986;28;20527;-56
2021/09/28 08:43:49;;;;;;;3.53;2.55;;;19.00;77.30;;;;;;5088533;28;20051;-54
2021/09/28 08:46:20;;;;;;;1.88;1.50;;;19.00;77.20;;;;;;5087011;28;20044;-53
2021/09/28 08:48:47;;;;;;;2.50;1.98;;;19.00;77.30;;;;;;5087263;28;20108;-48
2021/09/28 08:51:14;;;;;;;2.85;1.70;;;19.00;77.30;;;;;;5091133;28;20043;-56
2021/09/28 08:53:40;;;;;;;4.00;2.22;;;19.10;77.30;;;;;;5092612;28;20127;-54
2021/09/28 08:56:09;;;;;;;3.97;2.03;;;19.00;77.40;;;;;;5092563;28;20459;-53
2021/09/28 08:58:57;;;;;;;3.10;1.83;;;19.10;77.50;;;;;;5092099;28;20047;-54
2021/09/28 09:01:24;;;;;;;2.50;1.40;;;19.10;77.60;;;;;;5091691;28;20051;-50
2021/09/28 09:03:50;;;;;;;3.50;1.88;;;19.10;77.60;;;;;;5092136;28;20047;-55
2021/09/28 09:06:17;;;;;;;2.63;1.58;;;19.10;77.70;;;;;;5090402;28;20044;-54
2021/09/28 09:08:48;;;;;;;3.28;2.00;;;19.10;77.70;;;;;;5092912;28;20119;-55
2021/09/28 09:11:16;;;;;;;10.10;3.83;;;19.10;77.70;;;;;;5091565;28;20043;-58
2021/09/28 09:13:47;;;;;;;7.13;2.78;;;19.10;76.90;;;;;;5091785;28;20383;-58
2021/09/28 09:16:14;;;;;;;9.40;2.88;;;19.10;76.90;;;;;;5092876;28;20044;-58
2021/09/28 09:18:43;;;;;;;7.35;2.88;;;19.10;77.00;;;;;;5092212;28;20071;-58
2021/09/28 09:21:09;;;;;;;4.32;2.47;;;19.10;77.20;;;;;;5091852;28;20074;-57
2021/09/28 09:23:39;;;;;;;7.57;2.70;;;19.10;78.00;;;;;;5091819;28;20524;-56
2021/09/28 09:26:26;;;;;;;7.18;2.75;;;19.10;77.30;;;;;;5090530;28;20101;-55
2021/09/28 09:28:55;;;;;;;7.35;2.35;;;19.10;77.40;;;;;;5091935;28;20036;-57
2021/09/28 09:31:36;;;;;;;5.07;2.40;;;19.10;77.60;;;;;;5092290;28;20054;-56
2021/09/28 09:34:14;;;;;;;5.18;2.25;;;19.10;78.30;;;;;;5091872;28;20048;-56
2021/09/28 09:36:41;;;;;;;3.53;2.30;;;19.10;77.80;;;;;;5071903;28;20105;-57
2021/09/28 09:39:11;;;;;;;4.88;2.35;;;19.10;78.00;;;;;;5072386;28;20104;-57
2021/09/28 09:41:39;;;;;;;6.30;2.50;;;19.20;78.10;;;;;;5072024;28;20542;-57
2021/09/28 09:44:11;;;;;;;4.95;2.20;;;19.20;78.20;;;;;;5071798;28;20044;-56
2021/09/28 09:46:44;;;;;;;5.22;2.67;;;19.20;78.40;;;;;;5089534;28;20083;-56
2021/09/28 09:49:19;;;;;;;4.43;2.35;;;19.20;78.40;;;;;;5091768;28;20464;-57
2021/09/28 09:51:47;;;;;;;3.45;1.98;;;19.20;78.50;;;;;;5092407;28;20116;-56
2021/09/28 09:54:13;;;;;;;7.68;2.10;;;19.20;78.60;;;;;;5092203;28;20089;-56
2021/09/28 09:56:41;;;;;;;4.50;2.42;;;19.20;78.80;;;;;;5089952;28;20055;-58
2021/09/28 09:59:07;;;;;;;4.70;1.98;;;19.20;79.00;;;;;;5092248;28;20121;-56
2021/09/28 10:01:35;;;;;;;2.58;1.70;;;19.20;79.10;;;;;;5092445;28;20044;-57
2021/09/28 10:04:09;;;;;;;4.28;1.55;;;19.20;79.10;;;;;;5091797;28;20044;-57
2021/09/28 10:06:35;;;;;;;3.92;1.90;;;19.20;79.10;;;;;;5091274;28;20089;-57
2021/09/28 10:09:04;;;;;;;3.08;1.75;;;19.20;79.10;;;;;;5095862;28;20481;-58
2021/09/28 10:11:37;;;;;;;3.30;1.45;;;19.20;79.10;;;;;;5095023;28;20141;-58
2021/09/28 10:14:04;;;;;;;3.05;1.60;;;19.20;79.10;;;;;;5096124;28;20062;-58
2021/09/28 10:16:33;;;;;;;2.95;1.67;;;19.20;79.10;;;;;;5095636;28;20050;-56
2021/09/28 10:19:00;;;;;;;4.05;1.55;;;19.30;79.20;;;;;;5094480;28;20519;-58
2021/09/28 10:21:35;;;;;;;4.13;1.55;;;19.30;79.20;;;;;;5094977;28;20052;-58
2021/09/28 10:24:20;;;;;;;3.25;1.52;;;19.30;79.10;;;;;;5095903;28;20482;-57
2021/09/28 10:27:06;;;;;;;4.07;1.60;;;19.30;79.10;;;;;;5095706;28;20059;-58
2021/09/28 10:29:38;;;;;;;4.10;1.67;;;19.30;79.10;;;;;;5095054;28;20040;-58
2021/09/28 10:32:22;;;;;;;2.75;1.30;;;19.20;79.00;;;;;;5095147;28;20572;-57
2021/09/28 10:35:10;;;;;;;2.13;1.13;;;19.30;79.10;;;;;;5095512;28;20044;-57
2021/09/28 10:37:42;;;;;;;2.50;1.40;;;19.30;79.00;;;;;;5095131;28;20040;-57
2021/09/28 10:40:08;;;;;;;3.75;1.60;;;19.30;79.10;;;;;;5095513;28;20117;-58
2021/09/28 10:42:55;;;;;;;6.90;2.33;;;19.30;79.10;;;;;;5094589;28;20116;-58
2021/09/28 10:45:33;;;;;;;3.35;1.63;;;19.30;78.60;;;;;;5094902;28;20044;-58
2021/09/28 10:48:00;;;;;;;5.45;1.83;;;19.30;78.70;;;;;;5080305;28;20040;-60
2021/09/28 10:50:40;;;;;;;10.23;2.10;;;19.30;79.30;;;;;;5086170;28;20539;-58
2021/09/28 10:53:26;;;;;;;6.32;1.80;;;19.30;78.50;;;;;;5093857;28;20044;-58
2021/09/28 10:55:59;;;;;;;7.45;1.92;;;19.30;78.40;;;;;;5087203;28;20052;-58
2021/09/28 10:58:27;;;;;;;7.88;1.85;;;19.30;78.70;;;;;;5092898;28;20496;-56
2021/09/28 11:00:56;;;;;;;4.43;1.75;;;19.30;78.80;;;;;;5093289;28;20412;-57
2021/09/28 11:03:55;;;;;;;5.25;1.83;;;19.30;78.80;;;;;;5094761;28;20147;-56
2021/09/28 11:06:49;;;;;;;4.82;1.70;;;19.30;78.80;;;;;;5094508;28;20521;-58
2021/09/28 11:09:17;;;;;;;2.92;1.27;;;19.30;78.60;;;;;;5073715;28;20064;-58
2021/09/28 11:11:47;;;;;;;4.35;1.40;;;19.30;78.50;;;;;;5073676;28;20044;-59
2021/09/28 11:14:12;;;;;;;4.93;1.27;;;19.30;78.50;;;;;;5074179;28;20036;-57
2021/09/28 11:16:43;;;;;;;2.83;1.00;;;19.40;78.40;;;;;;5074076;28;20047;-58
2021/09/28 11:19:09;;;;;;;2.58;1.40;;;19.40;77.90;;;;;;5092494;28;20028;-58
2021/09/28 11:21:40;;;;;;;4.55;1.67;;;19.40;77.90;;;;;;5093857;28;20102;-58
2021/09/28 11:24:06;;;;;;;7.63;1.83;;;19.40;77.60;;;;;;5093245;28;20059;-71
2021/09/28 11:26:37;;;;;;;9.88;2.53;;;19.40;75.80;;;;;;5093334;28;20040;-68
2021/09/28 11:29:03;;;;;;;7.97;2.08;;;19.40;76.00;;;;;;5092331;28;20054;-68
2021/09/28 11:31:38;;;;;;;4.13;1.90;;;19.40;76.40;;;;;;5092794;28;20055;-73
2021/09/28 11:34:04;;;;;;;11.53;2.03;;;19.40;76.80;;;;;;5090707;28;20043;-71
2021/09/28 11:36:34;;;;;;;6.38;2.05;;;19.40;76.90;;;;;;5093126;28;20390;-67
2021/09/28 11:39:01;;;;;;;4.88;1.60;;;19.40;76.90;;;;;;5093827;28;20526;-68
2021/09/28 11:41:27;;;;;;;4.25;1.80;;;19.40;76.50;;;;;;5092977;28;20091;-74
2021/09/28 11:43:55;;;;;;;6.28;1.33;;;19.40;76.50;;;;;;5090906;28;20527;-70
2021/09/28 11:46:25;;;;;;;5.68;1.70;;;19.40;76.60;;;;;;5093230;28;20051;-54
2021/09/28 11:49:05;;;;;;;5.60;1.85;;;19.40;75.50;;;;;;5091695;28;20054;-59
2021/09/28 11:51:33;;;;;;;5.82;1.80;;;19.40;74.70;;;;;;5093215;28;20051;-62
2021/09/28 11:54:00;;;;;;;7.18;1.58;;;19.30;74.70;;;;;;5086340;28;20048;-60
2021/09/28 11:56:28;;;;;;;4.82;1.52;;;19.40;75.10;;;;;;5081260;28;20051;-58
2021/09/28 11:58:55;;;;;;;6.20;1.75;;;19.40;75.50;;;;;;5074041;28;20067;-60
2021/09/28 12:01:22;;;;;;;4.85;1.45;;;19.40;75.50;;;;;;5079952;28;20403;-55
2021/09/28 12:09:35;;;;;;;5.85;1.85;;;19.40;75.90;;;;;;5070357;28;20045;-60
2021/09/28 12:12:05;;;;;;;5.03;1.60;;;19.40;75.50;;;;;;5062558;28;20084;-60
2021/09/28 12:14:41;;;;;;;5.43;2.25;;;19.40;75.50;;;;;;5050952;28;20036;-60
2021/09/28 12:17:15;;;;;;;8.10;1.73;;;19.40;76.30;;;;;;5050076;28;20052;-50
2021/09/28 12:19:46;;;;;;;11.02;2.00;;;19.40;72.60;;;;;;5051255;28;20051;-55
2021/09/28 12:22:13;;;;;;;6.28;1.83;;;19.30;70.70;;;;;;5065053;28;20057;-57
2021/09/28 12:24:45;;;;;;;6.30;1.60;;;19.30;69.20;;;;;;5050414;28;20049;-60
2021/09/28 12:27:11;;;;;;;6.78;1.77;;;19.30;68.70;;;;;;5050518;28;20084;-61
2021/09/28 12:29:45;;;;;;;6.35;2.08;;;19.20;69.70;;;;;;5050192;28;20049;-59
2021/09/28 12:32:22;;;;;;;6.18;1.65;;;19.30;70.70;;;;;;5050272;28;20040;-60
2021/09/28 12:34:56;;;;;;;7.25;1.67;;;19.20;71.20;;;;;;5064717;28;20057;-58
2021/09/28 12:37:24;;;;;;;5.35;1.63;;;19.30;70.60;;;;;;5066883;28;20094;-60
2021/09/28 12:40:05;;;;;;;5.65;1.70;;;19.30;71.00;;;;;;5070344;28;20037;-60
2021/09/28 12:42:32;;;;;;;15.35;2.50;;;19.30;72.30;;;;;;5053506;28;20197;-60
2021/09/28 12:45:03;;;;;;;7.10;1.83;;;19.30;72.00;;;;;;5089203;28;20082;-60
2021/09/28 12:47:35;;;;;;;4.68;1.45;;;19.30;72.30;;;;;;5093186;28;20074;-59
2021/09/28 12:50:23;;;;;;;5.68;1.63;;;19.30;72.70;;;;;;5093231;28;20040;-60
2021/09/28 12:53:00;;;;;;;6.05;1.88;;;19.30;73.10;;;;;;5093191;28;20040;-59
2021/09/28 12:55:28;;;;;;;7.60;1.92;;;19.30;73.40;;;;;;5092608;28;20136;-61
2021/09/28 12:57:55;;;;;;;4.45;1.67;;;19.30;73.60;;;;;;5091899;28;20059;-60